sensor_id;sensor_type;location;lat;lon;timestamp;P1;durP1;ratioP1;P2;durP2;ratioP2
52708;SDS011;38606;52.986;6.980;2022-09-03T00:00:17;1.83;;;0.60;;
52708;SDS011;38606;52.986;6.980;2022-09-03T00:05:47;1.20;;;0.60;;
52708;SDS011;38606;52.986;6.980;2022-09-03T00:08:24;1.75;;;0.80;;
52708;SDS011;38606;52.986;6.980;2022-09-03T00:11:04;1.10;;;0.73;;
52708;SDS011;38606;52.986;6.980;2022-09-03T00:13:53;8.85;;;0.88;;
52708;SDS011;38606;52.986;6.980;2022-09-03T00:16:22;4.78;;;0.70;;
52708;SDS011;38606;52.986;6.980;2022-09-03T00:18:57;2.17;;;0.80;;
52708;SDS011;38606;52.986;6.980;2022-09-03T00:21:45;3.05;;;1.33;;
52708;SDS011;38606;52.986;6.980;2022-09-03T00:24:15;0.95;;;0.70;;
52708;SDS011;38606;52.986;6.980;2022-09-03T00:26:51;3.33;;;0.95;;
52708;SDS011;38606;52.986;6.980;2022-09-03T00:29:23;2.97;;;0.70;;
52708;SDS011;38606;52.986;6.980;2022-09-03T00:32:00;4.70;;;0.88;;
52708;SDS011;38606;52.986;6.980;2022-09-03T00:34:38;2.45;;;0.60;;
52708;SDS011;38606;52.986;6.980;2022-09-03T00:37:08;3.75;;;0.68;;
52708;SDS011;38606;52.986;6.980;2022-09-03T00:39:34;1.52;;;0.70;;
52708;SDS011;38606;52.986;6.980;2022-09-03T00:44:47;2.95;;;0.80;;
52708;SDS011;38606;52.986;6.980;2022-09-03T00:53:13;2.63;;;0.93;;
52708;SDS011;38606;52.986;6.980;2022-09-03T00:58:50;3.55;;;1.00;;
52708;SDS011;38606;52.986;6.980;2022-09-03T01:09:49;1.48;;;0.77;;
52708;SDS011;38606;52.986;6.980;2022-09-03T01:22:49;5.32;;;0.75;;
52708;SDS011;38606;52.986;6.980;2022-09-03T01:45:32;2.88;;;0.98;;
52708;SDS011;38606;52.986;6.980;2022-09-03T01:48:36;2.72;;;1.05;;
52708;SDS011;38606;52.986;6.980;2022-09-03T01:51:22;3.50;;;0.80;;
52708;SDS011;38606;52.986;6.980;2022-09-03T01:59:31;2.00;;;0.88;;
52708;SDS011;38606;52.986;6.980;2022-09-03T02:02:22;3.22;;;0.70;;
52708;SDS011;38606;52.986;6.980;2022-09-03T02:05:04;2.65;;;0.80;;
52708;SDS011;38606;52.986;6.980;2022-09-03T02:07:40;0.80;;;0.70;;
52708;SDS011;38606;52.986;6.980;2022-09-03T02:10:12;0.88;;;0.60;;
52708;SDS011;38606;52.986;6.980;2022-09-03T02:12:41;2.17;;;0.85;;
52708;SDS011;38606;52.986;6.980;2022-09-03T02:15:13;2.17;;;0.77;;
52708;SDS011;38606;52.986;6.980;2022-09-03T02:17:41;1.27;;;0.80;;
52708;SDS011;38606;52.986;6.980;2022-09-03T02:20:10;1.13;;;0.70;;
52708;SDS011;38606;52.986;6.980;2022-09-03T02:22:44;1.63;;;0.80;;
52708;SDS011;38606;52.986;6.980;2022-09-03T02:25:11;6.75;;;0.88;;
52708;SDS011;38606;52.986;6.980;2022-09-03T02:27:37;1.58;;;0.85;;
52708;SDS011;38606;52.986;6.980;2022-09-03T02:30:03;2.15;;;0.88;;
52708;SDS011;38606;52.986;6.980;2022-09-03T02:32:29;1.50;;;0.90;;
52708;SDS011;38606;52.986;6.980;2022-09-03T02:34:57;0.57;;;0.57;;
52708;SDS011;38606;52.986;6.980;2022-09-03T02:37:23;1.20;;;0.70;;
52708;SDS011;38606;52.986;6.980;2022-09-03T02:39:49;2.28;;;0.60;;
52708;SDS011;38606;52.986;6.980;2022-09-03T02:42:18;3.08;;;1.00;;
52708;SDS011;38606;52.986;6.980;2022-09-03T02:44:49;3.08;;;0.82;;
52708;SDS011;38606;52.986;6.980;2022-09-03T02:47:19;4.72;;;0.75;;
52708;SDS011;38606;52.986;6.980;2022-09-03T02:49:47;2.10;;;0.75;;
52708;SDS011;38606;52.986;6.980;2022-09-03T02:52:14;3.10;;;0.90;;
52708;SDS011;38606;52.986;6.980;2022-09-03T02:54:40;2.67;;;0.95;;
52708;SDS011;38606;52.986;6.980;2022-09-03T02:57:09;3.55;;;1.00;;
52708;SDS011;38606;52.986;6.980;2022-09-03T02:59:37;4.78;;;0.80;;
52708;SDS011;38606;52.986;6.980;2022-09-03T03:02:04;3.92;;;0.80;;
52708;SDS011;38606;52.986;6.980;2022-09-03T03:04:30;1.25;;;0.60;;
52708;SDS011;38606;52.986;6.980;2022-09-03T03:06:56;2.35;;;0.85;;
52708;SDS011;38606;52.986;6.980;2022-09-03T03:09:22;4.22;;;0.95;;
52708;SDS011;38606;52.986;6.980;2022-09-03T03:11:47;2.25;;;1.00;;
52708;SDS011;38606;52.986;6.980;2022-09-03T03:14:14;1.92;;;0.80;;
52708;SDS011;38606;52.986;6.980;2022-09-03T03:16:41;2.13;;;0.73;;
52708;SDS011;38606;52.986;6.980;2022-09-03T03:19:07;3.75;;;0.80;;
52708;SDS011;38606;52.986;6.980;2022-09-03T03:21:32;4.35;;;1.20;;
52708;SDS011;38606;52.986;6.980;2022-09-03T03:24:00;1.73;;;1.05;;
52708;SDS011;38606;52.986;6.980;2022-09-03T03:26:26;2.30;;;0.90;;
52708;SDS011;38606;52.986;6.980;2022-09-03T03:28:55;1.60;;;0.90;;
52708;SDS011;38606;52.986;6.980;2022-09-03T03:31:23;2.85;;;0.90;;
52708;SDS011;38606;52.986;6.980;2022-09-03T03:33:53;1.63;;;0.90;;
52708;SDS011;38606;52.986;6.980;2022-09-03T03:36:20;4.97;;;0.80;;
52708;SDS011;38606;52.986;6.980;2022-09-03T03:38:48;2.53;;;0.80;;
52708;SDS011;38606;52.986;6.980;2022-09-03T03:43:41;2.80;;;1.17;;
52708;SDS011;38606;52.986;6.980;2022-09-03T03:46:08;2.88;;;0.95;;
52708;SDS011;38606;52.986;6.980;2022-09-03T03:48:34;1.30;;;0.75;;
52708;SDS011;38606;52.986;6.980;2022-09-03T03:51:04;3.05;;;1.00;;
52708;SDS011;38606;52.986;6.980;2022-09-03T03:53:32;1.25;;;0.90;;
52708;SDS011;38606;52.986;6.980;2022-09-03T03:56:00;1.30;;;0.90;;
52708;SDS011;38606;52.986;6.980;2022-09-03T03:58:28;1.65;;;1.00;;
52708;SDS011;38606;52.986;6.980;2022-09-03T04:01:02;2.15;;;0.95;;
52708;SDS011;38606;52.986;6.980;2022-09-03T04:03:47;2.58;;;1.35;;
52708;SDS011;38606;52.986;6.980;2022-09-03T04:06:14;4.05;;;1.23;;
52708;SDS011;38606;52.986;6.980;2022-09-03T04:08:42;2.58;;;1.00;;
52708;SDS011;38606;52.986;6.980;2022-09-03T04:11:10;4.35;;;1.15;;
52708;SDS011;38606;52.986;6.980;2022-09-03T04:13:38;1.30;;;1.20;;
52708;SDS011;38606;52.986;6.980;2022-09-03T04:18:55;1.90;;;1.10;;
52708;SDS011;38606;52.986;6.980;2022-09-03T04:21:25;3.25;;;1.00;;
52708;SDS011;38606;52.986;6.980;2022-09-03T04:23:52;1.63;;;1.08;;
52708;SDS011;38606;52.986;6.980;2022-09-03T04:26:19;2.80;;;1.13;;
52708;SDS011;38606;52.986;6.980;2022-09-03T04:28:47;2.05;;;1.20;;
52708;SDS011;38606;52.986;6.980;2022-09-03T04:31:14;2.20;;;1.40;;
52708;SDS011;38606;52.986;6.980;2022-09-03T04:33:41;3.88;;;1.27;;
52708;SDS011;38606;52.986;6.980;2022-09-03T04:36:08;1.98;;;1.20;;
52708;SDS011;38606;52.986;6.980;2022-09-03T04:38:35;3.03;;;1.55;;
52708;SDS011;38606;52.986;6.980;2022-09-03T04:41:04;1.67;;;1.17;;
52708;SDS011;38606;52.986;6.980;2022-09-03T04:43:31;1.73;;;1.30;;
52708;SDS011;38606;52.986;6.980;2022-09-03T04:45:58;4.07;;;1.35;;
52708;SDS011;38606;52.986;6.980;2022-09-03T04:48:25;1.50;;;1.10;;
52708;SDS011;38606;52.986;6.980;2022-09-03T04:50:52;5.15;;;1.60;;
52708;SDS011;38606;52.986;6.980;2022-09-03T04:53:19;1.65;;;1.48;;
52708;SDS011;38606;52.986;6.980;2022-09-03T04:55:45;1.77;;;1.30;;
52708;SDS011;38606;52.986;6.980;2022-09-03T04:58:11;2.70;;;1.45;;
52708;SDS011;38606;52.986;6.980;2022-09-03T05:00:36;2.83;;;1.20;;
52708;SDS011;38606;52.986;6.980;2022-09-03T05:03:03;7.97;;;1.50;;
52708;SDS011;38606;52.986;6.980;2022-09-03T05:05:29;1.65;;;1.30;;
52708;SDS011;38606;52.986;6.980;2022-09-03T05:07:58;1.23;;;1.10;;
52708;SDS011;38606;52.986;6.980;2022-09-03T05:10:26;3.85;;;1.85;;
52708;SDS011;38606;52.986;6.980;2022-09-03T05:12:59;4.30;;;1.52;;
52708;SDS011;38606;52.986;6.980;2022-09-03T05:15:27;3.33;;;1.80;;
52708;SDS011;38606;52.986;6.980;2022-09-03T05:18:00;4.53;;;1.60;;
52708;SDS011;38606;52.986;6.980;2022-09-03T05:20:27;3.58;;;1.42;;
52708;SDS011;38606;52.986;6.980;2022-09-03T05:22:54;3.42;;;1.63;;
52708;SDS011;38606;52.986;6.980;2022-09-03T05:25:30;1.88;;;1.67;;
52708;SDS011;38606;52.986;6.980;2022-09-03T05:27:56;2.85;;;1.73;;
52708;SDS011;38606;52.986;6.980;2022-09-03T05:30:22;4.80;;;1.45;;
52708;SDS011;38606;52.986;6.980;2022-09-03T05:32:49;2.85;;;1.50;;
52708;SDS011;38606;52.986;6.980;2022-09-03T05:35:16;3.05;;;1.70;;
52708;SDS011;38606;52.986;6.980;2022-09-03T05:37:41;3.45;;;1.95;;
52708;SDS011;38606;52.986;6.980;2022-09-03T05:40:07;3.53;;;1.60;;
52708;SDS011;38606;52.986;6.980;2022-09-03T05:42:35;3.30;;;1.83;;
52708;SDS011;38606;52.986;6.980;2022-09-03T05:45:06;3.58;;;1.38;;
52708;SDS011;38606;52.986;6.980;2022-09-03T05:47:35;1.60;;;1.50;;
52708;SDS011;38606;52.986;6.980;2022-09-03T05:50:03;3.60;;;1.67;;
52708;SDS011;38606;52.986;6.980;2022-09-03T05:52:30;6.47;;;1.92;;
52708;SDS011;38606;52.986;6.980;2022-09-03T05:54:56;2.05;;;1.45;;
52708;SDS011;38606;52.986;6.980;2022-09-03T05:57:21;2.85;;;1.75;;
52708;SDS011;38606;52.986;6.980;2022-09-03T05:59:47;2.97;;;1.50;;
52708;SDS011;38606;52.986;6.980;2022-09-03T06:02:13;3.08;;;1.58;;
52708;SDS011;38606;52.986;6.980;2022-09-03T06:04:38;5.50;;;1.80;;
52708;SDS011;38606;52.986;6.980;2022-09-03T06:07:04;3.75;;;1.67;;
52708;SDS011;38606;52.986;6.980;2022-09-03T06:09:29;3.85;;;1.55;;
52708;SDS011;38606;52.986;6.980;2022-09-03T06:11:55;2.65;;;1.73;;
52708;SDS011;38606;52.986;6.980;2022-09-03T06:14:21;2.00;;;1.80;;
52708;SDS011;38606;52.986;6.980;2022-09-03T06:16:48;4.00;;;1.42;;
52708;SDS011;38606;52.986;6.980;2022-09-03T06:19:14;3.15;;;1.42;;
52708;SDS011;38606;52.986;6.980;2022-09-03T06:21:41;4.93;;;1.67;;
52708;SDS011;38606;52.986;6.980;2022-09-03T06:24:13;4.30;;;1.48;;
52708;SDS011;38606;52.986;6.980;2022-09-03T06:26:44;3.90;;;1.90;;
52708;SDS011;38606;52.986;6.980;2022-09-03T06:29:10;2.58;;;1.65;;
52708;SDS011;38606;52.986;6.980;2022-09-03T06:31:37;2.63;;;1.60;;
52708;SDS011;38606;52.986;6.980;2022-09-03T06:34:03;1.80;;;1.63;;
52708;SDS011;38606;52.986;6.980;2022-09-03T06:36:30;2.25;;;1.17;;
52708;SDS011;38606;52.986;6.980;2022-09-03T06:38:56;3.53;;;1.80;;
52708;SDS011;38606;52.986;6.980;2022-09-03T06:41:23;2.95;;;1.70;;
52708;SDS011;38606;52.986;6.980;2022-09-03T06:43:52;5.25;;;1.35;;
52708;SDS011;38606;52.986;6.980;2022-09-03T06:46:21;2.95;;;1.20;;
52708;SDS011;38606;52.986;6.980;2022-09-03T06:48:48;4.28;;;1.40;;
52708;SDS011;38606;52.986;6.980;2022-09-03T06:51:18;3.63;;;1.33;;
52708;SDS011;38606;52.986;6.980;2022-09-03T06:53:46;3.30;;;1.70;;
52708;SDS011;38606;52.986;6.980;2022-09-03T06:56:15;3.17;;;1.45;;
52708;SDS011;38606;52.986;6.980;2022-09-03T06:58:43;5.88;;;1.20;;
52708;SDS011;38606;52.986;6.980;2022-09-03T07:01:11;4.57;;;1.60;;
52708;SDS011;38606;52.986;6.980;2022-09-03T07:03:42;5.88;;;2.22;;
52708;SDS011;38606;52.986;6.980;2022-09-03T07:06:09;4.53;;;1.70;;
52708;SDS011;38606;52.986;6.980;2022-09-03T07:08:37;4.45;;;1.23;;
52708;SDS011;38606;52.986;6.980;2022-09-03T07:11:04;4.13;;;1.40;;
52708;SDS011;38606;52.986;6.980;2022-09-03T07:13:35;3.50;;;1.30;;
52708;SDS011;38606;52.986;6.980;2022-09-03T07:16:03;2.35;;;1.10;;
52708;SDS011;38606;52.986;6.980;2022-09-03T07:18:30;3.28;;;1.40;;
52708;SDS011;38606;52.986;6.980;2022-09-03T07:21:00;2.38;;;1.30;;
52708;SDS011;38606;52.986;6.980;2022-09-03T07:23:29;5.87;;;1.50;;
52708;SDS011;38606;52.986;6.980;2022-09-03T07:25:56;6.63;;;1.52;;
52708;SDS011;38606;52.986;6.980;2022-09-03T07:28:27;3.30;;;1.20;;
52708;SDS011;38606;52.986;6.980;2022-09-03T07:30:53;2.70;;;1.13;;
52708;SDS011;38606;52.986;6.980;2022-09-03T07:33:27;2.33;;;1.10;;
52708;SDS011;38606;52.986;6.980;2022-09-03T07:35:55;2.05;;;1.30;;
52708;SDS011;38606;52.986;6.980;2022-09-03T07:38:25;6.32;;;1.20;;
52708;SDS011;38606;52.986;6.980;2022-09-03T07:40:56;2.42;;;1.00;;
52708;SDS011;38606;52.986;6.980;2022-09-03T07:43:25;3.28;;;1.13;;
52708;SDS011;38606;52.986;6.980;2022-09-03T07:45:51;5.05;;;1.20;;
52708;SDS011;38606;52.986;6.980;2022-09-03T07:48:19;6.03;;;1.00;;
52708;SDS011;38606;52.986;6.980;2022-09-03T07:50:45;5.28;;;1.48;;
52708;SDS011;38606;52.986;6.980;2022-09-03T07:53:12;3.63;;;1.45;;
52708;SDS011;38606;52.986;6.980;2022-09-03T07:55:40;5.32;;;1.00;;
52708;SDS011;38606;52.986;6.980;2022-09-03T07:58:08;1.83;;;1.00;;
52708;SDS011;38606;52.986;6.980;2022-09-03T08:00:35;1.27;;;1.10;;
52708;SDS011;38606;52.986;6.980;2022-09-03T08:03:01;3.65;;;1.10;;
52708;SDS011;38606;52.986;6.980;2022-09-03T08:05:34;4.07;;;1.10;;
52708;SDS011;38606;52.986;6.980;2022-09-03T08:08:01;4.15;;;0.77;;
52708;SDS011;38606;52.986;6.980;2022-09-03T08:10:28;1.50;;;0.80;;
52708;SDS011;38606;52.986;6.980;2022-09-03T08:12:56;5.60;;;1.30;;
52708;SDS011;38606;52.986;6.980;2022-09-03T08:15:23;5.38;;;0.85;;
52708;SDS011;38606;52.986;6.980;2022-09-03T08:17:50;1.75;;;0.98;;
52708;SDS011;38606;52.986;6.980;2022-09-03T08:20:16;2.90;;;1.20;;
52708;SDS011;38606;52.986;6.980;2022-09-03T08:22:42;1.52;;;0.90;;
52708;SDS011;38606;52.986;6.980;2022-09-03T08:25:08;4.75;;;0.85;;
52708;SDS011;38606;52.986;6.980;2022-09-03T08:27:33;4.22;;;1.20;;
52708;SDS011;38606;52.986;6.980;2022-09-03T08:29:59;1.88;;;1.00;;
52708;SDS011;38606;52.986;6.980;2022-09-03T08:32:25;3.78;;;0.90;;
52708;SDS011;38606;52.986;6.980;2022-09-03T08:34:51;3.28;;;0.90;;
52708;SDS011;38606;52.986;6.980;2022-09-03T08:37:17;2.30;;;0.80;;
52708;SDS011;38606;52.986;6.980;2022-09-03T08:39:43;3.63;;;0.90;;
52708;SDS011;38606;52.986;6.980;2022-09-03T08:44:40;3.08;;;1.00;;
52708;SDS011;38606;52.986;6.980;2022-09-03T08:47:19;2.45;;;0.90;;
52708;SDS011;38606;52.986;6.980;2022-09-03T08:50:14;2.78;;;0.90;;
52708;SDS011;38606;52.986;6.980;2022-09-03T08:55:42;1.48;;;0.63;;
52708;SDS011;38606;52.986;6.980;2022-09-03T08:58:20;2.08;;;0.93;;
52708;SDS011;38606;52.986;6.980;2022-09-03T09:00:52;4.75;;;1.27;;
52708;SDS011;38606;52.986;6.980;2022-09-03T09:11:45;2.40;;;0.88;;
52708;SDS011;38606;52.986;6.980;2022-09-03T09:19:38;6.32;;;0.95;;
52708;SDS011;38606;52.986;6.980;2022-09-03T09:22:35;2.95;;;0.90;;
52708;SDS011;38606;52.986;6.980;2022-09-03T09:25:06;1.50;;;0.90;;
52708;SDS011;38606;52.986;6.980;2022-09-03T09:27:40;5.20;;;0.90;;
52708;SDS011;38606;52.986;6.980;2022-09-03T09:30:17;3.20;;;0.65;;
52708;SDS011;38606;52.986;6.980;2022-09-03T09:32:43;1.70;;;0.82;;
52708;SDS011;38606;52.986;6.980;2022-09-03T09:35:11;3.17;;;0.80;;
52708;SDS011;38606;52.986;6.980;2022-09-03T09:37:48;3.35;;;0.80;;
52708;SDS011;38606;52.986;6.980;2022-09-03T09:40:23;3.47;;;0.82;;
52708;SDS011;38606;52.986;6.980;2022-09-03T09:42:49;2.90;;;0.88;;
52708;SDS011;38606;52.986;6.980;2022-09-03T09:45:22;5.05;;;1.00;;
52708;SDS011;38606;52.986;6.980;2022-09-03T09:47:48;2.88;;;0.90;;
52708;SDS011;38606;52.986;6.980;2022-09-03T09:50:19;1.80;;;0.80;;
52708;SDS011;38606;52.986;6.980;2022-09-03T09:52:46;4.13;;;1.05;;
52708;SDS011;38606;52.986;6.980;2022-09-03T09:55:16;2.65;;;0.82;;
52708;SDS011;38606;52.986;6.980;2022-09-03T09:57:43;4.93;;;1.02;;
52708;SDS011;38606;52.986;6.980;2022-09-03T10:00:13;1.15;;;0.80;;
52708;SDS011;38606;52.986;6.980;2022-09-03T10:02:50;2.53;;;0.80;;
52708;SDS011;38606;52.986;6.980;2022-09-03T10:05:30;3.90;;;1.50;;
52708;SDS011;38606;52.986;6.980;2022-09-03T10:08:19;2.63;;;0.80;;
52708;SDS011;38606;52.986;6.980;2022-09-03T10:10:47;2.72;;;1.00;;
52708;SDS011;38606;52.986;6.980;2022-09-03T10:13:18;3.92;;;1.40;;
52708;SDS011;38606;52.986;6.980;2022-09-03T10:16:07;1.63;;;0.77;;
52708;SDS011;38606;52.986;6.980;2022-09-03T10:18:45;2.17;;;0.88;;
52708;SDS011;38606;52.986;6.980;2022-09-03T10:26:43;5.10;;;0.80;;
52708;SDS011;38606;52.986;6.980;2022-09-03T10:29:11;3.72;;;0.80;;
52708;SDS011;38606;52.986;6.980;2022-09-03T10:38:08;2.55;;;0.80;;
52708;SDS011;38606;52.986;6.980;2022-09-03T10:46:01;3.08;;;0.70;;
52708;SDS011;38606;52.986;6.980;2022-09-03T10:51:35;1.88;;;0.85;;
52708;SDS011;38606;52.986;6.980;2022-09-03T11:00:15;2.60;;;0.90;;
52708;SDS011;38606;52.986;6.980;2022-09-03T11:05:28;2.75;;;0.90;;
52708;SDS011;38606;52.986;6.980;2022-09-03T11:08:02;3.28;;;1.13;;
52708;SDS011;38606;52.986;6.980;2022-09-03T11:10:34;3.05;;;0.73;;
52708;SDS011;38606;52.986;6.980;2022-09-03T11:13:23;1.75;;;1.05;;
52708;SDS011;38606;52.986;6.980;2022-09-03T11:16:30;3.92;;;0.65;;
52708;SDS011;38606;52.986;6.980;2022-09-03T11:18:56;2.03;;;0.90;;
52708;SDS011;38606;52.986;6.980;2022-09-03T11:21:37;2.45;;;1.20;;
52708;SDS011;38606;52.986;6.980;2022-09-03T11:26:44;0.98;;;0.60;;
52708;SDS011;38606;52.986;6.980;2022-09-03T11:29:18;4.82;;;0.75;;
52708;SDS011;38606;52.986;6.980;2022-09-03T11:37:05;2.13;;;0.80;;
52708;SDS011;38606;52.986;6.980;2022-09-03T11:41:57;1.55;;;0.80;;
52708;SDS011;38606;52.986;6.980;2022-09-03T11:44:43;2.63;;;0.82;;
52708;SDS011;38606;52.986;6.980;2022-09-03T11:47:14;3.83;;;0.77;;
52708;SDS011;38606;52.986;6.980;2022-09-03T11:55:59;3.53;;;0.70;;
52708;SDS011;38606;52.986;6.980;2022-09-03T11:58:30;1.13;;;0.60;;
52708;SDS011;38606;52.986;6.980;2022-09-03T12:01:00;2.15;;;0.60;;
52708;SDS011;38606;52.986;6.980;2022-09-03T12:03:29;2.22;;;0.90;;
52708;SDS011;38606;52.986;6.980;2022-09-03T12:06:17;3.45;;;0.70;;
52708;SDS011;38606;52.986;6.980;2022-09-03T12:16:40;0.65;;;0.50;;
52708;SDS011;38606;52.986;6.980;2022-09-03T12:19:25;4.70;;;0.90;;
52708;SDS011;38606;52.986;6.980;2022-09-03T12:22:14;1.38;;;0.70;;
52708;SDS011;38606;52.986;6.980;2022-09-03T12:24:41;3.88;;;0.80;;
52708;SDS011;38606;52.986;6.980;2022-09-03T12:27:14;1.70;;;0.60;;
52708;SDS011;38606;52.986;6.980;2022-09-03T12:29:59;2.30;;;0.70;;
52708;SDS011;38606;52.986;6.980;2022-09-03T12:32:37;2.17;;;0.80;;
52708;SDS011;38606;52.986;6.980;2022-09-03T12:37:40;2.47;;;0.80;;
52708;SDS011;38606;52.986;6.980;2022-09-03T12:40:20;6.28;;;0.75;;
52708;SDS011;38606;52.986;6.980;2022-09-03T12:42:48;1.88;;;0.68;;
52708;SDS011;38606;52.986;6.980;2022-09-03T12:45:16;3.03;;;0.77;;
52708;SDS011;38606;52.986;6.980;2022-09-03T12:50:14;2.55;;;0.80;;
52708;SDS011;38606;52.986;6.980;2022-09-03T12:52:54;2.85;;;0.75;;
52708;SDS011;38606;52.986;6.980;2022-09-03T12:58:27;4.65;;;0.80;;
52708;SDS011;38606;52.986;6.980;2022-09-03T13:01:02;3.67;;;0.60;;
52708;SDS011;38606;52.986;6.980;2022-09-03T13:06:09;4.80;;;1.35;;
52708;SDS011;38606;52.986;6.980;2022-09-03T13:08:46;2.78;;;0.82;;
52708;SDS011;38606;52.986;6.980;2022-09-03T13:11:16;1.20;;;0.65;;
52708;SDS011;38606;52.986;6.980;2022-09-03T13:13:51;3.95;;;0.75;;
52708;SDS011;38606;52.986;6.980;2022-09-03T13:30:19;1.98;;;0.70;;
52708;SDS011;38606;52.986;6.980;2022-09-03T13:40:57;3.28;;;0.80;;
52708;SDS011;38606;52.986;6.980;2022-09-03T13:46:08;2.15;;;0.75;;
52708;SDS011;38606;52.986;6.980;2022-09-03T13:48:48;4.35;;;0.90;;
52708;SDS011;38606;52.986;6.980;2022-09-03T13:51:41;3.35;;;0.80;;
52708;SDS011;38606;52.986;6.980;2022-09-03T13:54:14;1.40;;;0.95;;
52708;SDS011;38606;52.986;6.980;2022-09-03T13:59:44;2.30;;;0.90;;
52708;SDS011;38606;52.986;6.980;2022-09-03T14:02:27;5.55;;;0.80;;
52708;SDS011;38606;52.986;6.980;2022-09-03T14:10:43;3.90;;;0.80;;
52708;SDS011;38606;52.986;6.980;2022-09-03T14:19:42;1.73;;;0.80;;
52708;SDS011;38606;52.986;6.980;2022-09-03T14:22:31;2.88;;;0.80;;
52708;SDS011;38606;52.986;6.980;2022-09-03T14:25:22;4.47;;;0.90;;
52708;SDS011;38606;52.986;6.980;2022-09-03T14:27:49;2.65;;;0.70;;
52708;SDS011;38606;52.986;6.980;2022-09-03T14:41:57;1.75;;;0.80;;
52708;SDS011;38606;52.986;6.980;2022-09-03T14:57:42;3.88;;;0.90;;
52708;SDS011;38606;52.986;6.980;2022-09-03T15:00:32;2.75;;;0.85;;
52708;SDS011;38606;52.986;6.980;2022-09-03T15:06:13;2.42;;;0.70;;
52708;SDS011;38606;52.986;6.980;2022-09-03T15:09:21;2.28;;;0.70;;
52708;SDS011;38606;52.986;6.980;2022-09-03T15:11:56;2.95;;;0.73;;
52708;SDS011;38606;52.986;6.980;2022-09-03T15:14:51;2.75;;;0.75;;
52708;SDS011;38606;52.986;6.980;2022-09-03T15:31:14;3.70;;;0.90;;
52708;SDS011;38606;52.986;6.980;2022-09-03T15:34:09;2.80;;;0.90;;
52708;SDS011;38606;52.986;6.980;2022-09-03T15:36:57;4.70;;;1.10;;
52708;SDS011;38606;52.986;6.980;2022-09-03T15:39:35;3.55;;;0.90;;
52708;SDS011;38606;52.986;6.980;2022-09-03T15:42:16;2.58;;;0.70;;
52708;SDS011;38606;52.986;6.980;2022-09-03T15:44:50;6.32;;;0.80;;
52708;SDS011;38606;52.986;6.980;2022-09-03T15:50:18;2.83;;;0.90;;
52708;SDS011;38606;52.986;6.980;2022-09-03T15:55:40;2.60;;;1.10;;
52708;SDS011;38606;52.986;6.980;2022-09-03T16:00:59;2.63;;;0.90;;
52708;SDS011;38606;52.986;6.980;2022-09-03T16:09:02;2.20;;;0.93;;
52708;SDS011;38606;52.986;6.980;2022-09-03T16:14:37;3.83;;;0.75;;
52708;SDS011;38606;52.986;6.980;2022-09-03T16:17:31;0.80;;;0.73;;
52708;SDS011;38606;52.986;6.980;2022-09-03T16:20:07;2.75;;;0.80;;
52708;SDS011;38606;52.986;6.980;2022-09-03T16:25:34;3.95;;;0.98;;
52708;SDS011;38606;52.986;6.980;2022-09-03T16:28:16;2.13;;;0.93;;
52708;SDS011;38606;52.986;6.980;2022-09-03T16:36:51;2.70;;;1.00;;
52708;SDS011;38606;52.986;6.980;2022-09-03T16:42:27;2.80;;;1.10;;
52708;SDS011;38606;52.986;6.980;2022-09-03T16:55:56;2.58;;;0.80;;
52708;SDS011;38606;52.986;6.980;2022-09-03T17:23:24;4.30;;;0.98;;
52708;SDS011;38606;52.986;6.980;2022-09-03T17:29:02;2.97;;;2.35;;
52708;SDS011;38606;52.986;6.980;2022-09-03T17:36:27;3.72;;;1.73;;
52708;SDS011;38606;52.986;6.980;2022-09-03T17:41:37;4.50;;;1.08;;
52708;SDS011;38606;52.986;6.980;2022-09-03T17:44:20;4.13;;;1.00;;
52708;SDS011;38606;52.986;6.980;2022-09-03T17:49:45;1.77;;;0.90;;
52708;SDS011;38606;52.986;6.980;2022-09-03T17:54:58;3.15;;;1.10;;
52708;SDS011;38606;52.986;6.980;2022-09-03T17:57:38;3.88;;;1.70;;
52708;SDS011;38606;52.986;6.980;2022-09-03T18:00:11;2.97;;;1.40;;
52708;SDS011;38606;52.986;6.980;2022-09-03T18:02:55;3.50;;;0.95;;
52708;SDS011;38606;52.986;6.980;2022-09-03T18:05:29;6.57;;;0.98;;
52708;SDS011;38606;52.986;6.980;2022-09-03T18:08:28;2.80;;;1.27;;
52708;SDS011;38606;52.986;6.980;2022-09-03T18:14:08;5.28;;;1.15;;
52708;SDS011;38606;52.986;6.980;2022-09-03T18:16:43;5.93;;;1.30;;
52708;SDS011;38606;52.986;6.980;2022-09-03T18:22:24;2.30;;;1.08;;
52708;SDS011;38606;52.986;6.980;2022-09-03T18:25:13;1.98;;;1.10;;
52708;SDS011;38606;52.986;6.980;2022-09-03T18:27:59;2.67;;;1.00;;
52708;SDS011;38606;52.986;6.980;2022-09-03T18:30:48;1.48;;;0.90;;
52708;SDS011;38606;52.986;6.980;2022-09-03T18:33:32;1.23;;;0.82;;
52708;SDS011;38606;52.986;6.980;2022-09-03T18:36:16;4.65;;;1.00;;
52708;SDS011;38606;52.986;6.980;2022-09-03T18:42:02;13.07;;;6.15;;
52708;SDS011;38606;52.986;6.980;2022-09-03T18:45:04;15.38;;;8.63;;
52708;SDS011;38606;52.986;6.980;2022-09-03T18:51:14;15.13;;;8.05;;
52708;SDS011;38606;52.986;6.980;2022-09-03T18:57:26;2.85;;;1.58;;
52708;SDS011;38606;52.986;6.980;2022-09-03T19:00:21;5.72;;;1.60;;
52708;SDS011;38606;52.986;6.980;2022-09-03T19:15:07;2.45;;;1.30;;
52708;SDS011;38606;52.986;6.980;2022-09-03T19:21:09;4.30;;;1.20;;
52708;SDS011;38606;52.986;6.980;2022-09-03T19:24:07;5.25;;;1.15;;
52708;SDS011;38606;52.986;6.980;2022-09-03T19:30:08;4.75;;;0.95;;
52708;SDS011;38606;52.986;6.980;2022-09-03T19:33:10;2.65;;;1.20;;
52708;SDS011;38606;52.986;6.980;2022-09-03T19:36:21;4.22;;;0.95;;
52708;SDS011;38606;52.986;6.980;2022-09-03T19:48:54;6.05;;;1.40;;
52708;SDS011;38606;52.986;6.980;2022-09-03T19:55:15;3.45;;;1.10;;
52708;SDS011;38606;52.986;6.980;2022-09-03T19:58:04;2.53;;;1.15;;
52708;SDS011;38606;52.986;6.980;2022-09-03T20:00:48;2.58;;;1.27;;
52708;SDS011;38606;52.986;6.980;2022-09-03T20:03:33;3.22;;;1.00;;
52708;SDS011;38606;52.986;6.980;2022-09-03T20:06:17;2.10;;;0.90;;
52708;SDS011;38606;52.986;6.980;2022-09-03T20:09:11;5.72;;;1.15;;
52708;SDS011;38606;52.986;6.980;2022-09-03T20:11:59;4.47;;;1.30;;
52708;SDS011;38606;52.986;6.980;2022-09-03T20:14:29;3.38;;;0.95;;
52708;SDS011;38606;52.986;6.980;2022-09-03T20:23:01;3.22;;;1.10;;
52708;SDS011;38606;52.986;6.980;2022-09-03T20:25:45;2.47;;;1.10;;
52708;SDS011;38606;52.986;6.980;2022-09-03T20:31:27;5.10;;;1.10;;
52708;SDS011;38606;52.986;6.980;2022-09-03T20:40:01;4.70;;;1.20;;
52708;SDS011;38606;52.986;6.980;2022-09-03T20:42:49;4.10;;;1.25;;
52708;SDS011;38606;52.986;6.980;2022-09-03T20:48:30;1.45;;;1.08;;
52708;SDS011;38606;52.986;6.980;2022-09-03T20:51:07;6.38;;;1.40;;
52708;SDS011;38606;52.986;6.980;2022-09-03T20:56:18;4.60;;;1.40;;
52708;SDS011;38606;52.986;6.980;2022-09-03T21:02:36;5.43;;;1.45;;
52708;SDS011;38606;52.986;6.980;2022-09-03T21:08:41;7.35;;;1.40;;
52708;SDS011;38606;52.986;6.980;2022-09-03T21:17:19;3.13;;;1.00;;
52708;SDS011;38606;52.986;6.980;2022-09-03T21:25:24;7.95;;;1.05;;
52708;SDS011;38606;52.986;6.980;2022-09-03T21:27:58;5.43;;;1.17;;
52708;SDS011;38606;52.986;6.980;2022-09-03T21:30:27;1.88;;;1.00;;
52708;SDS011;38606;52.986;6.980;2022-09-03T21:32:57;4.47;;;1.23;;
52708;SDS011;38606;52.986;6.980;2022-09-03T21:38:24;3.42;;;1.10;;
52708;SDS011;38606;52.986;6.980;2022-09-03T21:41:14;4.95;;;1.30;;
52708;SDS011;38606;52.986;6.980;2022-09-03T21:43:46;3.35;;;1.00;;
52708;SDS011;38606;52.986;6.980;2022-09-03T21:46:32;2.13;;;1.02;;
52708;SDS011;38606;52.986;6.980;2022-09-03T21:49:11;2.90;;;1.10;;
52708;SDS011;38606;52.986;6.980;2022-09-03T21:51:55;2.80;;;1.15;;
52708;SDS011;38606;52.986;6.980;2022-09-03T21:59:55;3.17;;;1.42;;
52708;SDS011;38606;52.986;6.980;2022-09-03T22:02:35;2.25;;;1.40;;
52708;SDS011;38606;52.986;6.980;2022-09-03T22:05:02;3.38;;;1.10;;
52708;SDS011;38606;52.986;6.980;2022-09-03T22:10:02;3.28;;;1.15;;
52708;SDS011;38606;52.986;6.980;2022-09-03T22:13:08;2.67;;;1.23;;